sensor_id;sensor_type;location;lat;lon;timestamp;pressure;altitude;pressure_sealevel;temperature;humidity
75923;BME280;64602;47.542;19.090;2023-08-08T00:01:02;100314.38;;;14.23;75.69
75923;BME280;64602;47.542;19.090;2023-08-08T00:06:04;100311.37;;;14.20;75.97
75923;BME280;64602;47.542;19.090;2023-08-08T00:11:07;100325.88;;;14.15;76.14
75923;BME280;64602;47.542;19.090;2023-08-08T00:16:09;100320.97;;;14.07;75.86
75923;BME280;64602;47.542;19.090;2023-08-08T00:21:12;100327.53;;;14.06;75.56
75923;BME280;64602;47.542;19.090;2023-08-08T00:26:14;100341.19;;;14.06;75.80
75923;BME280;64602;47.542;19.090;2023-08-08T00:31:16;100346.34;;;14.13;75.27
75923;BME280;64602;47.542;19.090;2023-08-08T00:36:19;100340.88;;;14.07;75.11
75923;BME280;64602;47.542;19.090;2023-08-08T00:41:22;100340.62;;;14.09;74.96
75923;BME280;64602;47.542;19.090;2023-08-08T00:46:24;100359.47;;;14.10;75.47
75923;BME280;64602;47.542;19.090;2023-08-08T00:51:26;100348.28;;;14.02;75.83
75923;BME280;64602;47.542;19.090;2023-08-08T00:56:29;100364.94;;;14.05;76.10
75923;BME280;64602;47.542;19.090;2023-08-08T01:01:31;100358.38;;;14.01;76.20
75923;BME280;64602;47.542;19.090;2023-08-08T01:06:39;100365.75;;;14.01;76.01
75923;BME280;64602;47.542;19.090;2023-08-08T01:11:43;100368.19;;;13.97;75.92
75923;BME280;64602;47.542;19.090;2023-08-08T01:16:51;100384.84;;;14.01;75.95
75923;BME280;64602;47.542;19.090;2023-08-08T01:21:54;100384.56;;;13.97;76.10
75923;BME280;64602;47.542;19.090;2023-08-08T01:27:00;100372.31;;;13.89;76.34
75923;BME280;64602;47.542;19.090;2023-08-08T01:32:03;100385.13;;;13.94;76.21
75923;BME280;64602;47.542;19.090;2023-08-08T01:37:17;100378.31;;;13.92;76.26
75923;BME280;64602;47.542;19.090;2023-08-08T01:42:22;100374.78;;;13.91;76.12
75923;BME280;64602;47.542;19.090;2023-08-08T01:47:26;100360.59;;;13.89;76.03
75923;BME280;64602;47.542;19.090;2023-08-08T01:52:28;100356.78;;;13.80;76.25
75923;BME280;64602;47.542;19.090;2023-08-08T01:57:31;100377.22;;;13.87;76.33
75923;BME280;64602;47.542;19.090;2023-08-08T02:02:33;100360.59;;;13.79;76.59
75923;BME280;64602;47.542;19.090;2023-08-08T02:07:37;100379.41;;;13.80;76.63
75923;BME280;64602;47.542;19.090;2023-08-08T02:12:39;100378.06;;;13.73;76.91
75923;BME280;64602;47.542;19.090;2023-08-08T02:17:45;100384.06;;;13.70;77.40
75923;BME280;64602;47.542;19.090;2023-08-08T02:22:47;100390.59;;;13.63;77.73
75923;BME280;64602;47.542;19.090;2023-08-08T02:27:49;100399.59;;;13.59;78.11
75923;BME280;64602;47.542;19.090;2023-08-08T02:32:51;100394.69;;;13.51;78.37
75923;BME280;64602;47.542;19.090;2023-08-08T02:37:54;100405.31;;;13.52;78.63
75923;BME280;64602;47.542;19.090;2023-08-08T02:42:56;100394.66;;;13.40;79.07
75923;BME280;64602;47.542;19.090;2023-08-08T02:47:58;100383.75;;;13.35;79.39
75923;BME280;64602;47.542;19.090;2023-08-08T02:53:00;100391.09;;;13.30;80.02
75923;BME280;64602;47.542;19.090;2023-08-08T02:58:02;100411.03;;;13.35;80.15
75923;BME280;64602;47.542;19.090;2023-08-08T03:03:04;100418.34;;;13.35;80.26
75923;BME280;64602;47.542;19.090;2023-08-08T03:08:07;100413.41;;;13.26;80.42
75923;BME280;64602;47.542;19.090;2023-08-08T03:13:09;100416.19;;;13.32;80.83
75923;BME280;64602;47.542;19.090;2023-08-08T03:18:11;100407.97;;;13.21;80.97
75923;BME280;64602;47.542;19.090;2023-08-08T03:23:13;100418.88;;;13.26;81.25
75923;BME280;64602;47.542;19.090;2023-08-08T03:28:15;100412.31;;;13.22;81.01
75923;BME280;64602;47.542;19.090;2023-08-08T03:33:17;100429.00;;;13.31;81.11
75923;BME280;64602;47.542;19.090;2023-08-08T03:38:19;100430.91;;;13.31;80.75
75923;BME280;64602;47.542;19.090;2023-08-08T03:43:22;100447.53;;;13.34;80.78
75923;BME280;64602;47.542;19.090;2023-08-08T03:48:24;100452.44;;;13.32;80.91
75923;BME280;64602;47.542;19.090;2023-08-08T03:53:26;100454.06;;;13.28;80.83
75923;BME280;64602;47.542;19.090;2023-08-08T03:58:28;100461.97;;;13.30;80.83
75923;BME280;64602;47.542;19.090;2023-08-08T04:03:31;100474.22;;;13.32;80.64
75923;BME280;64602;47.542;19.090;2023-08-08T04:08:34;100490.63;;;13.42;80.36
75923;BME280;64602;47.542;19.090;2023-08-08T04:13:36;100497.47;;;13.45;80.12
75923;BME280;64602;47.542;19.090;2023-08-08T04:18:38;100494.44;;;13.46;80.00
75923;BME280;64602;47.542;19.090;2023-08-08T04:23:40;100506.22;;;13.52;79.57
75923;BME280;64602;47.542;19.090;2023-08-08T04:28:43;100504.56;;;13.56;79.54
75923;BME280;64602;47.542;19.090;2023-08-08T04:33:45;100506.72;;;13.54;78.87
75923;BME280;64602;47.542;19.090;2023-08-08T04:38:47;100518.22;;;13.61;78.67
75923;BME280;64602;47.542;19.090;2023-08-08T04:43:49;100519.88;;;13.62;78.43
75923;BME280;64602;47.542;19.090;2023-08-08T04:48:51;100514.97;;;13.59;78.15
75923;BME280;64602;47.542;19.090;2023-08-08T04:53:55;100517.16;;;13.67;78.08
75923;BME280;64602;47.542;19.090;2023-08-08T04:58:57;100520.44;;;13.75;77.55
75923;BME280;64602;47.542;19.090;2023-08-08T05:03:59;100518.53;;;13.85;76.87
75923;BME280;64602;47.542;19.090;2023-08-08T05:09:01;100521.56;;;13.94;76.86
75923;BME280;64602;47.542;19.090;2023-08-08T05:14:04;100533.03;;;14.06;76.33
75923;BME280;64602;47.542;19.090;2023-08-08T05:19:06;100525.66;;;14.17;76.20
75923;BME280;64602;47.542;19.090;2023-08-08T05:24:08;100525.13;;;14.20;75.69
75923;BME280;64602;47.542;19.090;2023-08-08T05:29:10;100529.75;;;14.35;75.13
75923;BME280;64602;47.542;19.090;2023-08-08T05:34:13;100520.19;;;14.38;74.75
75923;BME280;64602;47.542;19.090;2023-08-08T05:39:15;100532.72;;;14.49;74.04
75923;BME280;64602;47.542;19.090;2023-08-08T05:44:17;100550.53;;;14.67;73.43
75923;BME280;64602;47.542;19.090;2023-08-08T05:49:19;100540.69;;;14.76;73.05
75923;BME280;64602;47.542;19.090;2023-08-08T05:54:22;100548.03;;;14.86;73.01
75923;BME280;64602;47.542;19.090;2023-08-08T05:59:24;100554.56;;;14.90;72.26
75923;BME280;64602;47.542;19.090;2023-08-08T06:04:26;100566.56;;;14.99;72.05
75923;BME280;64602;47.542;19.090;2023-08-08T06:09:28;100558.63;;;15.08;71.85
75923;BME280;64602;47.542;19.090;2023-08-08T06:14:31;100544.94;;;15.13;70.74
75923;BME280;64602;47.542;19.090;2023-08-08T06:19:33;100542.16;;;15.23;70.87
75923;BME280;64602;47.542;19.090;2023-08-08T06:24:35;100564.81;;;15.39;70.33
75923;BME280;64602;47.542;19.090;2023-08-08T06:29:37;100550.81;;;15.46;69.21
75923;BME280;64602;47.542;19.090;2023-08-08T06:34:39;100558.94;;;15.66;69.20
75923;BME280;64602;47.542;19.090;2023-08-08T06:39:41;100560.75;;;15.86;68.17
75923;BME280;64602;47.542;19.090;2023-08-08T06:44:44;100559.56;;;16.02;67.10
75923;BME280;64602;47.542;19.090;2023-08-08T06:49:46;100575.03;;;16.22;66.80
75923;BME280;64602;47.542;19.090;2023-08-08T06:54:48;100591.91;;;16.35;66.25
75923;BME280;64602;47.542;19.090;2023-08-08T06:59:51;100584.44;;;16.45;66.05
75923;BME280;64602;47.542;19.090;2023-08-08T07:04:54;100587.28;;;16.64;65.17
75923;BME280;64602;47.542;19.090;2023-08-08T07:09:56;100593.19;;;16.82;64.67
75923;BME280;64602;47.542;19.090;2023-08-08T07:15:00;100590.47;;;17.06;64.95
75923;BME280;64602;47.542;19.090;2023-08-08T07:20:02;100586.47;;;17.22;65.07
75923;BME280;64602;47.542;19.090;2023-08-08T07:25:05;100579.75;;;17.34;64.34
75923;BME280;64602;47.542;19.090;2023-08-08T07:30:08;100599.44;;;17.60;63.31
75923;BME280;64602;47.542;19.090;2023-08-08T07:35:10;100581.72;;;17.52;62.35
75923;BME280;64602;47.542;19.090;2023-08-08T07:40:19;100583.59;;;17.57;61.86
75923;BME280;64602;47.542;19.090;2023-08-08T07:45:22;100590.66;;;17.63;61.49
75923;BME280;64602;47.542;19.090;2023-08-08T07:50:24;100587.78;;;17.73;61.85
75923;BME280;64602;47.542;19.090;2023-08-08T07:55:26;100586.06;;;17.77;61.36
75923;BME280;64602;47.542;19.090;2023-08-08T08:00:29;100609.13;;;18.00;60.83
75923;BME280;64602;47.542;19.090;2023-08-08T08:05:31;100604.50;;;18.14;59.45
75923;BME280;64602;47.542;19.090;2023-08-08T08:10:34;100596.69;;;18.41;59.75
75923;BME280;64602;47.542;19.090;2023-08-08T08:15:36;100582.03;;;18.64;59.23
75923;BME280;64602;47.542;19.090;2023-08-08T08:20:38;100608.16;;;18.81;57.52
75923;BME280;64602;47.542;19.090;2023-08-08T08:25:41;100604.81;;;18.84;56.45
75923;BME280;64602;47.542;19.090;2023-08-08T08:30:43;100607.72;;;19.20;54.72
75923;BME280;64602;47.542;19.090;2023-08-08T08:35:45;100595.09;;;19.33;53.36
75923;BME280;64602;47.542;19.090;2023-08-08T08:40:48;100602.41;;;19.65;53.18
75923;BME280;64602;47.542;19.090;2023-08-08T08:45:52;100614.91;;;19.99;52.34
75923;BME280;64602;47.542;19.090;2023-08-08T08:50:55;100609.41;;;19.99;50.63
75923;BME280;64602;47.542;19.090;2023-08-08T08:55:59;100622.66;;;20.33;51.27
75923;BME280;64602;47.542;19.090;2023-08-08T09:01:02;100620.66;;;20.25;50.07
75923;BME280;64602;47.542;19.090;2023-08-08T09:06:05;100617.75;;;20.08;50.18
75923;BME280;64602;47.542;19.090;2023-08-08T09:11:08;100605.50;;;20.36;50.38
75923;BME280;64602;47.542;19.090;2023-08-08T09:16:10;100617.69;;;20.21;49.61
75923;BME280;64602;47.542;19.090;2023-08-08T09:21:14;100616.66;;;20.31;50.30
75923;BME280;64602;47.542;19.090;2023-08-08T09:26:17;100618.69;;;20.62;49.77
75923;BME280;64602;47.542;19.090;2023-08-08T09:31:19;100626.50;;;20.91;50.01
75923;BME280;64602;47.542;19.090;2023-08-08T09:36:22;100630.53;;;21.16;48.44
75923;BME280;64602;47.542;19.090;2023-08-08T09:41:25;100633.84;;;21.58;46.57
75923;BME280;64602;47.542;19.090;2023-08-08T09:46:29;100639.19;;;22.29;45.79
75923;BME280;64602;47.542;19.090;2023-08-08T09:51:32;100641.97;;;22.38;45.48
75923;BME280;64602;47.542;19.090;2023-08-08T09:56:35;100630.84;;;22.64;45.59
75923;BME280;64602;47.542;19.090;2023-08-08T10:01:40;100626.47;;;22.63;43.94
75923;BME280;64602;47.542;19.090;2023-08-08T10:06:44;100637.34;;;22.86;43.30
75923;BME280;64602;47.542;19.090;2023-08-08T10:11:46;100621.22;;;22.96;42.74
75923;BME280;64602;47.542;19.090;2023-08-08T10:16:49;100628.84;;;23.46;41.55
75923;BME280;64602;47.542;19.090;2023-08-08T10:21:57;100619.63;;;23.34;41.54
75923;BME280;64602;47.542;19.090;2023-08-08T10:27:01;100605.31;;;23.91;41.13
75923;BME280;64602;47.542;19.090;2023-08-08T10:32:06;100602.13;;;24.22;40.30
75923;BME280;64602;47.542;19.090;2023-08-08T10:37:10;100599.16;;;24.48;38.78
75923;BME280;64602;47.542;19.090;2023-08-08T10:42:18;100589.94;;;24.36;39.98
75923;BME280;64602;47.542;19.090;2023-08-08T10:47:46;100591.41;;;24.87;39.60
75923;BME280;64602;47.542;19.090;2023-08-08T10:58:17;100592.19;;;25.46;38.22
75923;BME280;64602;47.542;19.090;2023-08-08T11:03:22;100590.63;;;24.99;38.34
75923;BME280;64602;47.542;19.090;2023-08-08T11:08:25;100585.28;;;24.82;38.14
75923;BME280;64602;47.542;19.090;2023-08-08T11:13:29;100566.63;;;24.70;38.42
75923;BME280;64602;47.542;19.090;2023-08-08T11:18:31;100568.66;;;24.61;38.57
75923;BME280;64602;47.542;19.090;2023-08-08T11:23:33;100573.66;;;24.67;38.51
75923;BME280;64602;47.542;19.090;2023-08-08T11:28:49;100587.38;;;24.97;38.59
75923;BME280;64602;47.542;19.090;2023-08-08T11:33:52;100577.88;;;24.86;38.90
75923;BME280;64602;47.542;19.090;2023-08-08T11:38:56;100575.59;;;24.55;38.09
75923;BME280;64602;47.542;19.090;2023-08-08T11:43:59;100583.59;;;24.68;38.30
75923;BME280;64602;47.542;19.090;2023-08-08T11:49:05;100568.44;;;23.91;38.07
75923;BME280;64602;47.542;19.090;2023-08-08T11:54:08;100568.84;;;23.80;38.80
75923;BME280;64602;47.542;19.090;2023-08-08T11:59:10;100568.00;;;23.59;37.44
75923;BME280;64602;47.542;19.090;2023-08-08T12:04:14;100572.06;;;23.32;37.62
75923;BME280;64602;47.542;19.090;2023-08-08T12:09:17;100552.75;;;23.74;39.31
75923;BME280;64602;47.542;19.090;2023-08-08T12:14:19;100555.50;;;24.03;38.84
75923;BME280;64602;47.542;19.090;2023-08-08T12:19:25;100544.78;;;23.93;38.98
75923;BME280;64602;47.542;19.090;2023-08-08T12:24:27;100542.78;;;24.36;38.19
75923;BME280;64602;47.542;19.090;2023-08-08T12:29:29;100527.03;;;24.61;37.77
75923;BME280;64602;47.542;19.090;2023-08-08T12:34:31;100527.56;;;25.00;37.60
75923;BME280;64602;47.542;19.090;2023-08-08T12:39:34;100536.28;;;25.23;36.61
75923;BME280;64602;47.542;19.090;2023-08-08T12:44:36;100541.72;;;25.31;34.26
75923;BME280;64602;47.542;19.090;2023-08-08T12:49:39;100538.78;;;24.91;35.09
75923;BME280;64602;47.542;19.090;2023-08-08T12:54:41;100538.16;;;24.27;36.25
75923;BME280;64602;47.542;19.090;2023-08-08T12:59:43;100534.12;;;24.04;37.19
75923;BME280;64602;47.542;19.090;2023-08-08T13:04:45;100518.91;;;23.89;37.84
75923;BME280;64602;47.542;19.090;2023-08-08T13:09:48;100527.63;;;23.49;36.46
75923;BME280;64602;47.542;19.090;2023-08-08T13:14:50;100508.56;;;23.27;38.79
75923;BME280;64602;47.542;19.090;2023-08-08T13:19:52;100525.75;;;23.11;39.76
75923;BME280;64602;47.542;19.090;2023-08-08T13:24:54;100524.13;;;22.54;40.37
75923;BME280;64602;47.542;19.090;2023-08-08T13:29:57;100546.78;;;22.13;41.25
75923;BME280;64602;47.542;19.090;2023-08-08T13:34:59;100540.84;;;21.36;43.07
75923;BME280;64602;47.542;19.090;2023-08-08T13:40:01;100556.44;;;21.01;44.22
75923;BME280;64602;47.542;19.090;2023-08-08T13:45:03;100551.81;;;20.79;45.17
75923;BME280;64602;47.542;19.090;2023-08-08T13:50:06;100544.25;;;20.62;45.44
75923;BME280;64602;47.542;19.090;2023-08-08T13:55:09;100544.50;;;20.52;46.85
75923;BME280;64602;47.542;19.090;2023-08-08T14:00:12;100547.12;;;20.34;46.94
75923;BME280;64602;47.542;19.090;2023-08-08T14:05:15;100537.84;;;20.30;47.16
75923;BME280;64602;47.542;19.090;2023-08-08T14:10:17;100545.00;;;20.31;47.70
75923;BME280;64602;47.542;19.090;2023-08-08T14:15:19;100550.00;;;20.29;47.91
75923;BME280;64602;47.542;19.090;2023-08-08T14:20:21;100553.09;;;20.27;48.59
75923;BME280;64602;47.542;19.090;2023-08-08T14:25:23;100543.41;;;20.39;48.60
75923;BME280;64602;47.542;19.090;2023-08-08T14:30:26;100538.03;;;20.34;48.39
75923;BME280;64602;47.542;19.090;2023-08-08T14:35:29;100542.47;;;20.43;48.01
75923;BME280;64602;47.542;19.090;2023-08-08T14:40:32;100536.13;;;20.57;47.99
75923;BME280;64602;47.542;19.090;2023-08-08T14:45:39;100526.16;;;20.78;47.67
75923;BME280;64602;47.542;19.090;2023-08-08T14:50:41;100522.84;;;20.99;47.54
75923;BME280;64602;47.542;19.090;2023-08-08T14:55:43;100525.06;;;21.37;47.18
75923;BME280;64602;47.542;19.090;2023-08-08T15:00:45;100514.75;;;22.03;46.34
75923;BME280;64602;47.542;19.090;2023-08-08T15:05:49;100525.09;;;22.67;43.86
75923;BME280;64602;47.542;19.090;2023-08-08T15:10:51;100520.88;;;23.38;42.14
75923;BME280;64602;47.542;19.090;2023-08-08T15:15:54;100514.50;;;23.88;41.59
75923;BME280;64602;47.542;19.090;2023-08-08T15:20:56;100508.94;;;24.09;40.05
75923;BME280;64602;47.542;19.090;2023-08-08T15:25:59;100509.84;;;24.01;41.28
75923;BME280;64602;47.542;19.090;2023-08-08T15:31:01;100496.84;;;23.93;40.97
75923;BME280;64602;47.542;19.090;2023-08-08T15:36:05;100490.56;;;23.62;41.24
75923;BME280;64602;47.542;19.090;2023-08-08T15:41:07;100494.06;;;23.51;41.76
75923;BME280;64602;47.542;19.090;2023-08-08T15:46:09;100488.09;;;23.40;42.06
75923;BME280;64602;47.542;19.090;2023-08-08T15:51:11;100479.50;;;23.12;42.56
75923;BME280;64602;47.542;19.090;2023-08-08T15:56:13;100479.47;;;22.82;42.73
75923;BME280;64602;47.542;19.090;2023-08-08T16:01:15;100477.16;;;22.46;43.37
75923;BME280;64602;47.542;19.090;2023-08-08T16:06:18;100467.25;;;22.18;43.38
75923;BME280;64602;47.542;19.090;2023-08-08T16:11:20;100466.97;;;22.11;43.34
75923;BME280;64602;47.542;19.090;2023-08-08T16:16:23;100466.12;;;22.11;44.07
75923;BME280;64602;47.542;19.090;2023-08-08T16:21:25;100460.91;;;22.18;43.70
75923;BME280;64602;47.542;19.090;2023-08-08T16:26:27;100459.47;;;22.03;44.25
75923;BME280;64602;47.542;19.090;2023-08-08T16:31:29;100461.78;;;21.75;43.46
75923;BME280;64602;47.542;19.090;2023-08-08T16:36:34;100465.19;;;21.63;46.08
75923;BME280;64602;47.542;19.090;2023-08-08T16:41:38;100456.91;;;21.46;44.06
75923;BME280;64602;47.542;19.090;2023-08-08T16:46:40;100469.09;;;21.53;43.89
75923;BME280;64602;47.542;19.090;2023-08-08T16:51:43;100465.19;;;21.54;44.61
75923;BME280;64602;47.542;19.090;2023-08-08T16:56:45;100474.78;;;21.48;42.78
75923;BME280;64602;47.542;19.090;2023-08-08T17:01:48;100463.66;;;21.31;41.78
75923;BME280;64602;47.542;19.090;2023-08-08T17:06:50;100462.84;;;21.22;41.61
75923;BME280;64602;47.542;19.090;2023-08-08T17:11:52;100461.03;;;21.08;41.48
75923;BME280;64602;47.542;19.090;2023-08-08T17:16:55;100461.97;;;21.04;42.21
75923;BME280;64602;47.542;19.090;2023-08-08T17:21:57;100474.00;;;21.08;42.76
75923;BME280;64602;47.542;19.090;2023-08-08T17:27:01;100469.75;;;21.02;43.22
75923;BME280;64602;47.542;19.090;2023-08-08T17:32:03;100473.63;;;20.92;42.20
75923;BME280;64602;47.542;19.090;2023-08-08T17:37:06;100469.84;;;20.79;42.82
75923;BME280;64602;47.542;19.090;2023-08-08T17:42:09;100471.56;;;20.58;44.42
75923;BME280;64602;47.542;19.090;2023-08-08T17:47:11;100465.28;;;20.43;46.06
75923;BME280;64602;47.542;19.090;2023-08-08T17:52:13;100483.59;;;20.39;46.98
75923;BME280;64602;47.542;19.090;2023-08-08T17:57:15;100483.81;;;20.20;47.69
75923;BME280;64602;47.542;19.090;2023-08-08T18:02:18;100479.28;;;20.02;48.75
75923;BME280;64602;47.542;19.090;2023-08-08T18:07:20;100480.59;;;19.82;49.60
75923;BME280;64602;47.542;19.090;2023-08-08T18:12:23;100469.84;;;19.58;50.69
75923;BME280;64602;47.542;19.090;2023-08-08T18:17:25;100485.47;;;19.49;51.62
75923;BME280;64602;47.542;19.090;2023-08-08T18:22:27;100480.13;;;19.30;52.18
75923;BME280;64602;47.542;19.090;2023-08-08T18:27:30;100485.81;;;19.19;52.80
75923;BME280;64602;47.542;19.090;2023-08-08T18:32:32;100474.94;;;18.87;54.09
75923;BME280;64602;47.542;19.090;2023-08-08T18:37:35;100503.38;;;18.82;54.81
75923;BME280;64602;47.542;19.090;2023-08-08T18:42:38;100493.12;;;18.55;56.11
75923;BME280;64602;47.542;19.090;2023-08-08T18:47:41;100507.44;;;18.52;56.29
75923;BME280;64602;47.542;19.090;2023-08-08T18:52:43;100511.94;;;18.48;57.61
75923;BME280;64602;47.542;19.090;2023-08-08T18:57:45;100503.44;;;18.30;58.52
75923;BME280;64602;47.542;19.090;2023-08-08T19:02:47;100512.06;;;18.24;59.15
75923;BME280;64602;47.542;19.090;2023-08-08T19:07:50;100512.81;;;18.10;60.07
75923;BME280;64602;47.542;19.090;2023-08-08T19:12:52;100526.88;;;18.09;60.25
75923;BME280;64602;47.542;19.090;2023-08-08T19:17:55;100515.31;;;17.93;60.97
75923;BME280;64602;47.542;19.090;2023-08-08T19:22:57;100524.28;;;17.99;61.84
75923;BME280;64602;47.542;19.090;2023-08-08T19:28:00;100529.84;;;17.93;62.18
75923;BME280;64602;47.542;19.090;2023-08-08T19:33:02;100527.56;;;17.82;62.28
75923;BME280;64602;47.542;19.090;2023-08-08T19:38:04;100523.59;;;17.69;63.30
75923;BME280;64602;47.542;19.090;2023-08-08T19:43:06;100517.66;;;17.62;63.27
75923;BME280;64602;47.542;19.090;2023-08-08T19:48:08;100515.19;;;17.41;63.97
75923;BME280;64602;47.542;19.090;2023-08-08T19:53:11;100523.41;;;17.41;64.02
75923;BME280;64602;47.542;19.090;2023-08-08T19:58:13;100528.91;;;17.41;63.53
75923;BME280;64602;47.542;19.090;2023-08-08T20:03:17;100526.25;;;17.36;63.40
75923;BME280;64602;47.542;19.090;2023-08-08T20:08:20;100529.56;;;17.33;63.82
75923;BME280;64602;47.542;19.090;2023-08-08T20:13:22;100526.38;;;17.26;64.20
75923;BME280;64602;47.542;19.090;2023-08-08T20:18:27;100520.91;;;17.02;65.39
75923;BME280;64602;47.542;19.090;2023-08-08T20:23:30;100532.41;;;17.04;65.73
75923;BME280;64602;47.542;19.090;2023-08-08T20:28:32;100538.22;;;16.97;66.28
75923;BME280;64602;47.542;19.090;2023-08-08T20:33:34;100533.06;;;16.91;67.10
75923;BME280;64602;47.542;19.090;2023-08-08T20:38:36;100528.53;;;16.76;67.52
75923;BME280;64602;47.542;19.090;2023-08-08T20:43:38;100532.25;;;16.61;68.43
75923;BME280;64602;47.542;19.090;2023-08-08T20:48:42;100536.94;;;16.55;68.58
75923;BME280;64602;47.542;19.090;2023-08-08T20:53:44;100527.16;;;16.49;69.08
75923;BME280;64602;47.542;19.090;2023-08-08T20:58:46;100533.53;;;16.39;69.67
75923;BME280;64602;47.542;19.090;2023-08-08T21:03:49;100535.53;;;16.29;69.54
75923;BME280;64602;47.542;19.090;2023-08-08T21:08:51;100518.06;;;16.24;69.58
75923;BME280;64602;47.542;19.090;2023-08-08T21:13:53;100530.50;;;16.12;70.20
75923;BME280;64602;47.542;19.090;2023-08-08T21:18:55;100530.00;;;15.99;70.85
75923;BME280;64602;47.542;19.090;2023-08-08T21:23:57;100532.25;;;15.97;71.74
75923;BME280;64602;47.542;19.090;2023-08-08T21:28:59;100547.34;;;15.85;72.31
75923;BME280;64602;47.542;19.090;2023-08-08T21:34:02;100548.75;;;15.82;72.39
75923;BME280;64602;47.542;19.090;2023-08-08T21:39:04;100525.00;;;15.72;72.06
75923;BME280;64602;47.542;19.090;2023-08-08T21:44:07;100513.50;;;15.70;71.90
75923;BME280;64602;47.542;19.090;2023-08-08T21:49:09;100512.97;;;15.68;71.86
75923;BME280;64602;47.542;19.090;2023-08-08T21:54:11;100531.59;;;15.66;72.09
75923;BME280;64602;47.542;19.090;2023-08-08T21:59:13;100534.03;;;15.63;72.24
75923;BME280;64602;47.542;19.090;2023-08-08T22:04:15;100527.56;;;15.48;72.47
75923;BME280;64602;47.542;19.090;2023-08-08T22:09:18;100521.25;;;15.53;72.54
75923;BME280;64602;47.542;19.090;2023-08-08T22:14:20;100539.34;;;15.49;72.88
75923;BME280;64602;47.542;19.090;2023-08-08T22:19:22;100542.63;;;15.41;73.11
75923;BME280;64602;47.542;19.090;2023-08-08T22:24:25;100535.59;;;15.29;73.92
75923;BME280;64602;47.542;19.090;2023-08-08T22:29:27;100536.47;;;15.20;74.50
75923;BME280;64602;47.542;19.090;2023-08-08T22:34:29;100522.56;;;15.06;74.98
75923;BME280;64602;47.542;19.090;2023-08-08T22:39:31;100517.34;;;15.04;75.13
75923;BME280;64602;47.542;19.090;2023-08-08T22:44:33;100532.16;;;14.98;76.22
75923;BME280;64602;47.542;19.090;2023-08-08T22:49:35;100521.25;;;14.83;76.59
75923;BME280;64602;47.542;19.090;2023-08-08T22:54:37;100528.37;;;14.84;76.45
75923;BME280;64602;47.542;19.090;2023-08-08T22:59:40;100526.69;;;14.93;76.30
75923;BME280;64602;47.542;19.090;2023-08-08T23:04:42;100525.06;;;14.87;76.81
75923;BME280;64602;47.542;19.090;2023-08-08T23:09:44;100521.78;;;14.85;77.24
75923;BME280;64602;47.542;19.090;2023-08-08T23:14:46;100505.97;;;14.77;77.32
75923;BME280;64602;47.542;19.090;2023-08-08T23:19:49;100521.53;;;14.66;78.19
75923;BME280;64602;47.542;19.090;2023-08-08T23:24:51;100521.00;;;14.59;78.33
75923;BME280;64602;47.542;19.090;2023-08-08T23:29:53;100522.38;;;14.56;78.01
75923;BME280;64602;47.542;19.090;2023-08-08T23:34:55;100537.69;;;14.57;77.87
75923;BME280;64602;47.542;19.090;2023-08-08T23:39:57;100518.00;;;14.50;78.23
75923;BME280;64602;47.542;19.090;2023-08-08T23:45:00;100526.47;;;14.59;77.61
75923;BME280;64602;47.542;19.090;2023-08-08T23:50:02;100516.91;;;14.56;77.30
75923;BME280;64602;47.542;19.090;2023-08-08T23:55:05;100511.75;;;14.55;76.74
